Terminal Aerodrome Forecast
Issued by NWS Glasgow, MT

Home | Current Version | Previous Version | Text Only | Print | Product List | Glossary On
Versions: 1 2 3 4 5 6 7 8 9 10 11 12
698
FTUS45 KGGW 291128
TAFGGW
TAF
KGGW 291128Z 2912/3012 08006KT P6SM BKN070
     FM291800 12014KT P6SM BKN100
     FM292300 12014KT P6SM SCT110
     FM300400 10009KT P6SM SCT150=

USA.gov is the U.S. government's official web portal to all federal, state and local government web resources and services.